createdAt,value
2023-11-25T00:00:35.647Z,0.93
2023-11-25T00:03:03.750Z,1.13
2023-11-25T00:05:31.677Z,2.67
2023-11-25T00:07:59.652Z,2.83
2023-11-25T00:10:27.642Z,2.00
2023-11-25T00:12:56.837Z,1.27
2023-11-25T00:15:25.131Z,1.57
2023-11-25T00:17:53.560Z,1.10
2023-11-25T00:20:21.339Z,2.90
2023-11-25T00:22:49.379Z,0.80
2023-11-25T00:25:19.739Z,0.90
2023-11-25T00:27:48.639Z,1.13
2023-11-25T00:30:17.944Z,2.70
2023-11-25T00:32:48.735Z,0.80
2023-11-25T00:35:16.509Z,3.53
2023-11-25T00:37:44.252Z,1.47
2023-11-25T00:40:12.394Z,5.60
2023-11-25T00:42:41.226Z,0.90
2023-11-25T00:45:10.877Z,1.63
2023-11-25T00:47:42.008Z,1.17
2023-11-25T00:50:11.354Z,3.73
2023-11-25T00:52:39.766Z,2.83
2023-11-25T00:55:09.797Z,1.03
2023-11-25T00:57:39.417Z,2.80
2023-11-25T01:00:11.327Z,3.33
2023-11-25T01:02:43.432Z,3.20
2023-11-25T01:05:11.848Z,2.20
2023-11-25T01:07:39.816Z,1.00
2023-11-25T01:10:08.730Z,1.57
2023-11-25T01:12:36.628Z,5.27
2023-11-25T01:15:05.471Z,10.37
2023-11-25T01:17:33.454Z,3.80
2023-11-25T01:20:02.614Z,3.00
2023-11-25T01:22:30.452Z,1.27
2023-11-25T01:24:58.462Z,2.57
2023-11-25T01:27:26.169Z,2.73
2023-11-25T01:29:54.697Z,1.20
2023-11-25T01:32:22.454Z,5.33
2023-11-25T01:34:50.198Z,5.77
2023-11-25T01:37:19.577Z,2.80
2023-11-25T01:39:48.154Z,3.33
2023-11-25T01:42:15.971Z,1.57
2023-11-25T01:44:43.928Z,4.97
2023-11-25T01:47:13.163Z,4.00
2023-11-25T01:49:42.088Z,2.03
2023-11-25T01:52:10.666Z,4.47
2023-11-25T01:54:40.125Z,6.53
2023-11-25T01:57:09.656Z,2.50
2023-11-25T01:59:37.432Z,2.70
2023-11-25T02:02:07.153Z,3.83
2023-11-25T02:04:35.184Z,3.10
2023-11-25T02:07:03.722Z,2.80
2023-11-25T02:09:32.324Z,3.80
2023-11-25T02:12:03.701Z,2.07
2023-11-25T02:14:31.757Z,4.83
2023-11-25T02:17:01.247Z,10.20
2023-11-25T02:19:29.952Z,1.20
2023-11-25T02:21:57.970Z,2.37
2023-11-25T02:24:28.919Z,5.87
2023-11-25T02:27:01.127Z,5.60
2023-11-25T02:29:30.100Z,4.63
2023-11-25T02:31:59.408Z,8.67
2023-11-25T02:34:28.082Z,5.30
2023-11-25T02:36:56.104Z,5.43
2023-11-25T02:39:24.204Z,4.30
2023-11-25T02:41:55.335Z,1.67
2023-11-25T02:44:23.630Z,1.93
2023-11-25T02:46:51.908Z,3.73
2023-11-25T02:49:22.521Z,2.40
2023-11-25T02:51:50.872Z,2.30
2023-11-25T02:54:18.847Z,4.73
2023-11-25T02:56:46.746Z,5.90
2023-11-25T02:59:19.033Z,4.30
2023-11-25T03:01:51.163Z,3.23
2023-11-25T03:04:20.589Z,3.67
2023-11-25T03:06:49.368Z,4.20
2023-11-25T03:09:18.488Z,3.90
2023-11-25T03:11:46.298Z,1.47
2023-11-25T03:14:16.504Z,2.83
2023-11-25T03:16:44.400Z,3.80
2023-11-25T03:19:12.400Z,7.10
2023-11-25T03:21:40.333Z,5.00
2023-11-25T03:24:09.395Z,4.57
2023-11-25T03:26:38.045Z,4.73
2023-11-25T03:29:05.866Z,5.10
2023-11-25T03:31:35.284Z,3.27
2023-11-25T03:34:03.064Z,3.40
2023-11-25T03:36:30.802Z,1.50
2023-11-25T03:38:58.453Z,5.07
2023-11-25T03:41:26.153Z,1.20
2023-11-25T03:43:53.810Z,3.17
2023-11-25T03:46:22.533Z,2.90
2023-11-25T03:48:52.042Z,7.70
2023-11-25T03:51:19.732Z,1.63
2023-11-25T03:53:47.516Z,3.20
2023-11-25T03:56:18.636Z,2.57
2023-11-25T03:58:46.208Z,2.77
2023-11-25T04:01:13.980Z,3.00
2023-11-25T04:03:41.834Z,3.47
2023-11-25T04:06:11.049Z,12.40
2023-11-25T04:08:38.958Z,2.87
2023-11-25T04:11:09.248Z,2.13
2023-11-25T04:13:37.504Z,3.73
2023-11-25T04:16:05.807Z,10.30
2023-11-25T04:18:34.581Z,7.87
2023-11-25T04:21:04.714Z,3.43
2023-11-25T04:23:34.007Z,4.10
2023-11-25T04:26:02.761Z,4.17
2023-11-25T04:28:34.443Z,6.67
2023-11-25T04:31:03.747Z,7.23
2023-11-25T04:33:31.450Z,5.13
2023-11-25T04:36:00.925Z,14.57
2023-11-25T04:38:28.721Z,4.07
2023-11-25T04:40:57.837Z,6.40
2023-11-25T04:43:26.665Z,7.97
2023-11-25T04:45:54.368Z,4.60
2023-11-25T04:48:22.226Z,12.23
2023-11-25T04:50:50.051Z,10.60
2023-11-25T04:53:17.986Z,6.73
2023-11-25T04:55:45.684Z,3.57
2023-11-25T04:58:14.858Z,5.30
2023-11-25T05:00:42.766Z,12.03
2023-11-25T05:03:10.785Z,3.30
2023-11-25T05:05:38.886Z,3.10
2023-11-25T05:08:08.247Z,7.53
2023-11-25T05:10:36.241Z,5.20
2023-11-25T05:13:05.680Z,9.43
2023-11-25T05:15:36.452Z,5.90
2023-11-25T05:18:04.178Z,6.00
2023-11-25T05:20:31.823Z,11.63
2023-11-25T05:23:00.525Z,6.27
2023-11-25T05:25:28.312Z,14.80
2023-11-25T05:27:56.146Z,7.23
2023-11-25T05:30:24.267Z,21.97
2023-11-25T05:32:53.448Z,24.40
2023-11-25T05:35:21.271Z,10.33
2023-11-25T05:37:49.485Z,14.47
2023-11-25T05:40:19.003Z,13.70
2023-11-25T05:42:54.082Z,12.57
2023-11-25T05:45:27.259Z,9.10
2023-11-25T05:47:57.418Z,10.27
2023-11-25T05:50:25.415Z,8.60
2023-11-25T05:52:53.323Z,9.63
2023-11-25T05:55:21.986Z,7.33
2023-11-25T05:57:51.779Z,11.13
2023-11-25T06:00:20.672Z,9.13
2023-11-25T06:02:48.397Z,19.50
2023-11-25T06:05:17.712Z,9.00
2023-11-25T06:07:45.525Z,9.30
2023-11-25T06:10:13.582Z,12.47
2023-11-25T06:12:41.574Z,10.80
2023-11-25T06:15:12.505Z,8.93
2023-11-25T06:17:40.277Z,11.47
2023-11-25T06:20:09.557Z,13.37
2023-11-25T06:22:39.418Z,9.80
2023-11-25T06:25:07.954Z,13.90
2023-11-25T06:27:36.766Z,12.13
2023-11-25T06:30:05.115Z,10.90
2023-11-25T06:32:34.319Z,10.90
2023-11-25T06:35:02.392Z,14.47
2023-11-25T06:37:30.208Z,10.10
2023-11-25T06:39:59.488Z,12.27
2023-11-25T06:42:27.161Z,15.10
2023-11-25T06:44:55.195Z,12.57
2023-11-25T06:47:23.374Z,15.17
2023-11-25T06:49:52.601Z,11.03
2023-11-25T06:52:20.584Z,12.37
2023-11-25T06:54:48.307Z,9.13
2023-11-25T06:57:17.628Z,5.17
2023-11-25T06:59:46.519Z,7.27
2023-11-25T07:02:14.614Z,19.20
2023-11-25T07:04:42.586Z,9.90
2023-11-25T07:07:10.477Z,10.87
2023-11-25T07:09:38.431Z,10.87
2023-11-25T07:12:07.021Z,8.37
2023-11-25T07:14:36.059Z,9.60
2023-11-25T07:17:04.524Z,15.07
2023-11-25T07:19:32.605Z,18.03
2023-11-25T07:22:00.480Z,12.23
2023-11-25T07:24:29.648Z,13.90
2023-11-25T07:27:03.163Z,8.70
2023-11-25T07:29:32.533Z,13.30
2023-11-25T07:32:02.257Z,13.30
2023-11-25T07:34:32.259Z,7.10
2023-11-25T07:37:00.689Z,14.00
2023-11-25T07:39:30.566Z,14.80
2023-11-25T07:41:59.345Z,12.20
2023-11-25T07:44:31.332Z,13.80
2023-11-25T07:46:59.210Z,12.33
2023-11-25T07:49:31.154Z,7.50
2023-11-25T07:51:59.007Z,9.53
2023-11-25T07:54:27.135Z,19.53
2023-11-25T07:56:54.756Z,11.37
2023-11-25T07:59:22.740Z,11.37
2023-11-25T08:01:58.946Z,8.07
2023-11-25T08:04:27.017Z,15.83
2023-11-25T08:06:56.119Z,7.87
2023-11-25T08:09:24.589Z,12.17
2023-11-25T08:11:52.417Z,10.87
2023-11-25T08:14:20.164Z,22.13
2023-11-25T08:16:49.241Z,8.40
2023-11-25T08:19:22.239Z,7.90
2023-11-25T08:21:53.651Z,7.07
2023-11-25T08:24:22.771Z,6.07
2023-11-25T08:26:53.697Z,11.70
2023-11-25T08:29:21.509Z,8.43
2023-11-25T08:31:49.739Z,15.77
2023-11-25T08:34:17.779Z,12.77
2023-11-25T08:36:54.101Z,9.23
2023-11-25T08:39:26.799Z,12.17
2023-11-25T08:41:56.156Z,5.40
2023-11-25T08:44:24.035Z,11.03
2023-11-25T08:46:52.798Z,9.87
2023-11-25T08:49:23.140Z,7.10
2023-11-25T08:51:52.388Z,10.23
2023-11-25T08:54:20.923Z,6.50
2023-11-25T08:56:52.344Z,7.00
2023-11-25T08:59:21.587Z,10.87
2023-11-25T09:01:53.495Z,5.90
2023-11-25T09:04:21.701Z,21.80
2023-11-25T09:06:49.588Z,10.23
2023-11-25T09:09:20.201Z,8.67
2023-11-25T09:11:49.076Z,8.23
2023-11-25T09:14:19.948Z,8.73
2023-11-25T09:16:48.161Z,16.93
2023-11-25T09:19:16.164Z,9.40
2023-11-25T09:21:47.415Z,12.23
2023-11-25T09:24:15.115Z,13.50
2023-11-25T09:26:43.027Z,11.47
2023-11-25T09:29:11.781Z,11.43
2023-11-25T09:31:40.818Z,4.73
2023-11-25T09:36:55.963Z,11.17
2023-11-25T09:39:25.814Z,15.53
2023-11-25T09:41:53.459Z,10.00
2023-11-25T09:44:22.421Z,8.00
2023-11-25T09:46:52.462Z,6.70
2023-11-25T09:49:20.516Z,5.57
2023-11-25T09:51:49.436Z,9.40
2023-11-25T09:54:23.796Z,7.30
2023-11-25T09:56:52.236Z,9.03
2023-11-25T09:59:23.768Z,19.73
2023-11-25T10:01:53.261Z,9.27
2023-11-25T10:04:22.374Z,11.20
2023-11-25T10:06:55.140Z,10.53
2023-11-25T10:09:23.680Z,6.57
2023-11-25T10:11:52.031Z,13.93
2023-11-25T10:14:19.895Z,9.00
2023-11-25T10:16:48.062Z,12.03
2023-11-25T10:19:21.921Z,14.20
2023-11-25T10:21:50.470Z,12.80
2023-11-25T10:24:23.992Z,10.33
2023-11-25T10:26:52.391Z,7.50
2023-11-25T10:29:21.085Z,6.80
2023-11-25T10:31:57.041Z,12.80
2023-11-25T10:34:27.723Z,8.80
2023-11-25T10:36:55.590Z,8.03
2023-11-25T10:39:24.953Z,7.27
2023-11-25T10:41:53.272Z,5.50
2023-11-25T10:44:22.298Z,8.73
2023-11-25T10:46:50.573Z,8.10
2023-11-25T10:49:21.505Z,8.03
2023-11-25T10:51:57.864Z,9.10
2023-11-25T10:54:31.723Z,12.20
2023-11-25T10:57:04.600Z,9.00
2023-11-25T10:59:35.255Z,6.53
2023-11-25T11:02:07.522Z,9.50
2023-11-25T11:04:42.742Z,8.00
2023-11-25T11:07:16.781Z,7.10
2023-11-25T11:09:47.809Z,5.13
2023-11-25T11:12:24.215Z,4.20
2023-11-25T11:15:01.558Z,6.70
2023-11-25T11:17:36.004Z,5.97
2023-11-25T11:20:06.897Z,4.10
2023-11-25T11:22:37.062Z,8.20
2023-11-25T11:25:16.712Z,6.23
2023-11-25T11:27:56.797Z,14.77
2023-11-25T11:30:42.627Z,3.97
2023-11-25T11:33:11.840Z,2.87
2023-11-25T11:35:40.575Z,3.43
2023-11-25T11:38:29.806Z,2.90
2023-11-25T11:41:02.874Z,6.23
2023-11-25T11:43:31.088Z,3.73
2023-11-25T11:46:00.076Z,5.33
2023-11-25T11:48:28.863Z,6.50
2023-11-25T11:50:56.682Z,5.80
2023-11-25T11:53:26.233Z,6.17
2023-11-25T11:55:56.841Z,1.97
2023-11-25T11:58:26.683Z,3.83
2023-11-25T12:01:09.514Z,3.93
2023-11-25T12:03:39.180Z,3.20
2023-11-25T12:06:07.991Z,3.90
2023-11-25T12:08:35.906Z,3.50
2023-11-25T12:11:06.609Z,7.03
2023-11-25T12:13:37.423Z,5.63
2023-11-25T12:16:08.222Z,3.10
2023-11-25T12:18:37.481Z,8.80
2023-11-25T12:21:06.907Z,12.03
2023-11-25T12:26:09.283Z,7.13
2023-11-25T12:28:43.275Z,7.30
2023-11-25T12:31:11.253Z,5.13
2023-11-25T12:33:40.748Z,7.73
2023-11-25T12:36:09.701Z,2.30
2023-11-25T12:38:38.229Z,7.10
2023-11-25T12:41:14.016Z,4.13
2023-11-25T12:44:06.805Z,3.93
2023-11-25T12:46:34.649Z,2.80
2023-11-25T12:49:22.007Z,4.33
2023-11-25T12:51:51.281Z,4.03
2023-11-25T12:54:21.235Z,6.30
2023-11-25T12:56:53.343Z,6.70
2023-11-25T12:59:23.464Z,5.43
2023-11-25T13:01:51.877Z,3.60
2023-11-25T13:04:19.995Z,5.70
2023-11-25T13:06:49.790Z,2.80
2023-11-25T13:09:21.068Z,3.30
2023-11-25T13:11:49.099Z,1.53
2023-11-25T13:14:18.214Z,6.63
2023-11-25T13:16:45.031Z,3.63
2023-11-25T13:19:13.714Z,4.17
2023-11-25T13:21:42.992Z,1.97
2023-11-25T13:24:10.833Z,4.63
2023-11-25T13:26:38.745Z,1.40
2023-11-25T13:29:06.801Z,1.50
2023-11-25T13:31:38.516Z,2.50
2023-11-25T13:34:07.276Z,2.50
2023-11-25T13:36:35.030Z,2.70
2023-11-25T13:39:05.509Z,3.53
2023-11-25T13:41:35.614Z,3.10
2023-11-25T13:44:03.302Z,4.60
2023-11-25T13:46:31.188Z,3.17
2023-11-25T13:49:00.556Z,7.70
2023-11-25T13:51:29.028Z,4.33
2023-11-25T13:53:58.222Z,3.63
2023-11-25T13:56:26.184Z,4.20
2023-11-25T13:58:55.312Z,6.93
2023-11-25T14:01:23.350Z,1.87
2023-11-25T14:03:52.120Z,4.60
2023-11-25T14:06:26.061Z,5.83
2023-11-25T14:08:54.931Z,10.17
2023-11-25T14:11:25.905Z,6.30
2023-11-25T14:13:57.648Z,4.10
2023-11-25T14:16:28.468Z,6.10
2023-11-25T14:18:56.361Z,7.80
2023-11-25T14:21:25.612Z,3.23
2023-11-25T14:23:54.536Z,4.03
2023-11-25T14:26:22.261Z,1.97
2023-11-25T14:28:50.149Z,6.33
2023-11-25T14:31:19.383Z,2.00
2023-11-25T14:33:47.224Z,1.37
2023-11-25T14:36:14.958Z,4.20
2023-11-25T14:38:44.058Z,4.30
2023-11-25T14:41:12.021Z,6.23
2023-11-25T14:43:39.965Z,4.63
2023-11-25T14:46:08.044Z,5.13
2023-11-25T14:48:35.842Z,3.23
2023-11-25T14:51:03.909Z,3.60
2023-11-25T14:53:32.189Z,3.97
2023-11-25T14:56:02.257Z,2.30
2023-11-25T14:58:30.158Z,2.20
2023-11-25T15:00:57.859Z,3.23
2023-11-25T15:03:28.485Z,3.47
2023-11-25T15:05:56.535Z,2.07
2023-11-25T15:08:24.421Z,3.53
2023-11-25T15:10:52.824Z,1.87
2023-11-25T15:13:22.051Z,2.90
2023-11-25T15:15:52.229Z,1.93
2023-11-25T15:18:20.445Z,1.73
2023-11-25T15:20:48.346Z,6.57
2023-11-25T15:23:16.026Z,5.90
2023-11-25T15:25:43.980Z,2.70
2023-11-25T15:28:16.662Z,2.13
2023-11-25T15:30:46.273Z,5.97
2023-11-25T15:33:13.919Z,2.73
2023-11-25T15:35:41.612Z,4.87
2023-11-25T15:38:09.341Z,2.40
2023-11-25T15:40:38.644Z,2.70
2023-11-25T15:43:06.499Z,1.43
2023-11-25T15:45:34.553Z,1.57
2023-11-25T15:48:03.878Z,2.40
2023-11-25T15:50:31.574Z,2.10
2023-11-25T15:52:59.261Z,2.03
2023-11-25T15:55:27.517Z,1.50
2023-11-25T15:57:55.359Z,3.13
2023-11-25T16:00:24.076Z,2.00
2023-11-25T16:02:53.221Z,3.33
2023-11-25T16:05:23.426Z,2.20
2023-11-25T16:07:51.242Z,1.57
2023-11-25T16:10:19.082Z,2.20
2023-11-25T16:12:46.746Z,1.40
2023-11-25T16:15:16.004Z,4.47
2023-11-25T16:17:44.015Z,2.97
2023-11-25T16:20:16.695Z,2.83
2023-11-25T16:22:45.925Z,2.17
2023-11-25T16:25:14.153Z,2.40
2023-11-25T16:27:42.100Z,1.97
2023-11-25T16:30:14.738Z,2.23
2023-11-25T16:32:42.835Z,1.67
2023-11-25T16:35:13.466Z,1.77
2023-11-25T16:37:41.596Z,9.33
2023-11-25T16:40:12.383Z,4.63
2023-11-25T16:42:40.200Z,1.40
2023-11-25T16:45:08.575Z,1.40
2023-11-25T16:47:36.584Z,1.20
2023-11-25T16:50:05.164Z,1.53
2023-11-25T16:52:33.188Z,1.27
2023-11-25T16:55:00.836Z,1.70
2023-11-25T16:57:30.243Z,1.47
2023-11-25T16:59:57.882Z,1.50
2023-11-25T17:02:27.555Z,1.50
2023-11-25T17:04:55.449Z,2.30
2023-11-25T17:07:23.479Z,8.83
2023-11-25T17:09:51.154Z,3.50
2023-11-25T17:12:18.847Z,4.20
2023-11-25T17:14:47.890Z,2.20
2023-11-25T17:17:15.879Z,6.13
2023-11-25T17:19:43.638Z,4.43
2023-11-25T17:22:11.333Z,3.07
2023-11-25T17:24:39.395Z,9.50
2023-11-25T17:27:07.640Z,6.30
2023-11-25T17:29:35.459Z,4.03
2023-11-25T17:32:05.644Z,5.87
2023-11-25T17:34:34.404Z,4.37
2023-11-25T17:37:02.456Z,6.23
2023-11-25T17:39:30.829Z,4.60
2023-11-25T17:41:58.532Z,5.50
2023-11-25T17:44:28.602Z,1.87
2023-11-25T17:46:56.297Z,6.40
2023-11-25T17:49:26.427Z,4.17
2023-11-25T17:51:54.418Z,4.33
2023-11-25T17:54:22.172Z,3.17
2023-11-25T17:56:53.602Z,5.87
2023-11-25T17:59:21.426Z,5.30
2023-11-25T18:01:50.456Z,7.27
2023-11-25T18:04:18.759Z,2.50
2023-11-25T18:06:47.767Z,2.07
2023-11-25T18:09:18.353Z,7.27
2023-11-25T18:11:46.025Z,7.77
2023-11-25T18:14:14.459Z,6.20
2023-11-25T18:16:42.375Z,6.30
2023-11-25T18:19:11.760Z,6.53
2023-11-25T18:21:40.156Z,3.43
2023-11-25T18:24:10.781Z,7.70
2023-11-25T18:26:38.726Z,1.53
2023-11-25T18:29:06.877Z,2.10
2023-11-25T18:31:35.268Z,1.67
2023-11-25T18:34:03.867Z,1.17
2023-11-25T18:36:31.905Z,2.63
2023-11-25T18:38:59.686Z,1.60
2023-11-25T18:41:28.953Z,1.50
2023-11-25T18:43:59.206Z,2.03
2023-11-25T18:46:27.255Z,1.23
2023-11-25T18:48:55.016Z,1.17
2023-11-25T18:51:22.688Z,3.00
2023-11-25T18:53:50.326Z,2.23
2023-11-25T18:56:17.918Z,1.67
2023-11-25T18:58:47.074Z,3.03
2023-11-25T19:01:16.275Z,3.57
2023-11-25T19:03:44.147Z,1.10
2023-11-25T19:06:12.228Z,1.33
2023-11-25T19:08:40.747Z,1.77
2023-11-25T19:11:09.360Z,3.20
2023-11-25T19:13:38.168Z,1.20
2023-11-25T19:16:09.755Z,1.50
2023-11-25T19:18:39.569Z,1.23
2023-11-25T19:21:07.785Z,2.23
2023-11-25T19:23:35.425Z,1.27
2023-11-25T19:26:03.650Z,1.50
2023-11-25T19:28:31.426Z,2.77
2023-11-25T19:30:59.140Z,3.20
2023-11-25T19:33:28.200Z,1.67
2023-11-25T19:35:55.968Z,1.93
2023-11-25T19:38:23.633Z,4.73
2023-11-25T19:40:51.407Z,1.03
2023-11-25T19:43:19.237Z,2.57
2023-11-25T19:45:46.920Z,1.73
2023-11-25T19:48:14.814Z,1.80
2023-11-25T19:50:45.597Z,1.67
2023-11-25T19:53:14.196Z,3.10
2023-11-25T19:55:41.964Z,2.30
2023-11-25T19:58:10.992Z,2.20
2023-11-25T20:00:48.964Z,1.87
2023-11-25T20:03:22.989Z,2.80
2023-11-25T20:05:52.605Z,5.93
2023-11-25T20:08:20.607Z,1.40
2023-11-25T20:10:49.228Z,2.53
2023-11-25T20:13:17.912Z,0.93
2023-11-25T20:15:45.782Z,1.63
2023-11-25T20:18:14.621Z,1.17
2023-11-25T20:20:42.830Z,1.53
2023-11-25T20:23:12.270Z,2.13
2023-11-25T20:25:39.996Z,4.00
2023-11-25T20:28:07.822Z,1.27
2023-11-25T20:30:35.581Z,2.87
2023-11-25T20:33:03.465Z,2.33
2023-11-25T20:35:31.277Z,1.40
2023-11-25T20:37:59.062Z,1.37
2023-11-25T20:40:28.503Z,2.10
2023-11-25T20:42:56.329Z,1.53
2023-11-25T20:45:25.007Z,4.10
2023-11-25T20:47:52.679Z,2.37
2023-11-25T20:50:20.492Z,2.73
2023-11-25T20:52:48.817Z,1.43
2023-11-25T20:55:16.633Z,2.60
2023-11-25T20:57:46.747Z,3.53
2023-11-25T21:00:15.599Z,3.10
2023-11-25T21:02:43.738Z,5.73
2023-11-25T21:05:12.355Z,1.60
2023-11-25T21:07:41.322Z,1.87
2023-11-25T21:10:09.882Z,2.80
2023-11-25T21:12:37.548Z,3.07
2023-11-25T21:15:07.761Z,2.63
2023-11-25T21:17:35.856Z,1.70
2023-11-25T21:20:25.625Z,2.80
2023-11-25T21:22:58.589Z,2.30
2023-11-25T21:25:51.994Z,1.43
2023-11-25T21:28:20.211Z,4.80
2023-11-25T21:31:07.347Z,3.40
2023-11-25T21:34:22.447Z,3.87
2023-11-25T21:37:26.114Z,6.30
2023-11-25T21:40:13.898Z,3.60
2023-11-25T21:42:54.160Z,5.17
2023-11-25T21:45:21.018Z,2.57
2023-11-25T21:47:52.299Z,2.53
2023-11-25T21:50:23.783Z,1.90
2023-11-25T21:53:15.607Z,1.77
2023-11-25T21:55:48.580Z,2.43
2023-11-25T21:58:38.846Z,2.63
2023-11-25T22:01:26.163Z,3.40
2023-11-25T22:04:06.036Z,3.00
2023-11-25T22:06:47.016Z,2.63
2023-11-25T22:09:48.620Z,3.17
2023-11-25T22:12:27.298Z,2.37
2023-11-25T22:14:59.477Z,2.30
2023-11-25T22:17:29.589Z,2.97
2023-11-25T22:20:23.768Z,5.23
2023-11-25T22:22:52.261Z,6.77
2023-11-25T22:25:27.856Z,3.17
2023-11-25T22:27:56.059Z,3.23
2023-11-25T22:30:25.476Z,6.10
2023-11-25T22:32:53.320Z,4.13
2023-11-25T22:35:22.565Z,3.03
2023-11-25T22:37:50.803Z,1.90
2023-11-25T22:40:18.676Z,3.73
2023-11-25T22:42:46.734Z,3.50
2023-11-25T22:45:14.871Z,2.30
2023-11-25T22:47:43.114Z,2.97
2023-11-25T22:50:11.817Z,3.27
2023-11-25T22:52:41.103Z,3.77
2023-11-25T22:55:09.178Z,2.83
2023-11-25T22:57:37.530Z,1.83
2023-11-25T23:00:16.427Z,2.13
2023-11-25T23:02:45.200Z,1.43
2023-11-25T23:05:13.706Z,6.37
2023-11-25T23:07:42.996Z,1.57
2023-11-25T23:10:10.956Z,1.60
2023-11-25T23:12:38.729Z,3.17
2023-11-25T23:15:07.346Z,1.57
2023-11-25T23:17:36.076Z,3.33
2023-11-25T23:20:08.326Z,2.30
2023-11-25T23:22:36.032Z,3.33
2023-11-25T23:25:05.776Z,2.30
2023-11-25T23:27:33.562Z,2.13
2023-11-25T23:30:01.465Z,6.97
2023-11-25T23:32:29.338Z,1.73
2023-11-25T23:34:58.355Z,3.10
2023-11-25T23:37:26.481Z,3.23
2023-11-25T23:39:54.306Z,2.83
2023-11-25T23:42:24.542Z,1.67
2023-11-25T23:44:52.311Z,3.30
2023-11-25T23:47:20.606Z,3.43
2023-11-25T23:49:48.995Z,7.73
2023-11-25T23:52:17.577Z,6.23
2023-11-25T23:54:45.392Z,3.73
2023-11-25T23:57:13.432Z,4.00
2023-11-25T23:59:42.803Z,2.90
